Raymond, Canada
Current Conditions -  °F | °C
As of 10:00 AM on Thursday 30 Oct 2014 (Local Time) from CYQL Reporting Station
Moderate Fog Moderate Fog  
Wind Chill: -7°   Ceiling: 200
Heat Index: -3°   Visibility: 0.12mi
Dew Point: -3°   Wind: 7mph
Humidity: 100%   Direction: 70°ENE
Pressure: 30.25"   Gusts: NA
Location:  49.47°N, 112.66°W
Report Text: CYQL 301600Z 07006KT 290V090 1/8SM FZFG VV002 M03/M03 A3025 RMK FG8 FROIN SLP275
Loading
Personal Weather Stations






























Interactive Weather Map
Tropical Storm Tracking
New forecast layout! Learn more

10-Day Weather Forecast

Advertisements
Track Severe Weather on mobile